createdAt,value
2024-05-09T00:00:40.759Z,10.87
2024-05-09T00:03:09.935Z,10.86
2024-05-09T00:05:38.182Z,10.90
2024-05-09T00:08:06.560Z,10.90
2024-05-09T00:10:37.231Z,10.86
2024-05-09T00:13:07.882Z,10.93
2024-05-09T00:15:35.824Z,10.92
2024-05-09T00:18:04.540Z,10.95
2024-05-09T00:20:38.204Z,10.71
2024-05-09T00:23:09.175Z,10.32
2024-05-09T00:25:37.002Z,9.99
2024-05-09T00:28:04.005Z,10.07
2024-05-09T00:30:34.700Z,10.05
2024-05-09T00:33:05.342Z,10.14
2024-05-09T00:35:33.359Z,10.23
2024-05-09T00:38:00.460Z,10.31
2024-05-09T00:40:37.659Z,10.36
2024-05-09T00:43:07.541Z,10.23
2024-05-09T00:45:35.894Z,10.41
2024-05-09T00:48:08.837Z,10.36
2024-05-09T00:50:41.201Z,10.37
2024-05-09T00:53:11.779Z,10.39
2024-05-09T00:55:40.238Z,10.41
2024-05-09T00:58:09.260Z,10.07
2024-05-09T01:00:39.808Z,10.08
2024-05-09T01:03:10.035Z,10.05
2024-05-09T01:05:39.763Z,10.21
2024-05-09T01:08:07.900Z,10.13
2024-05-09T01:10:36.276Z,10.24
2024-05-09T01:13:07.182Z,10.19
2024-05-09T01:15:35.343Z,10.08
2024-05-09T01:18:09.845Z,10.18
2024-05-09T01:20:42.006Z,10.07
2024-05-09T01:23:17.515Z,9.88
2024-05-09T01:25:45.146Z,10.05
2024-05-09T01:28:12.497Z,9.97
2024-05-09T01:30:43.758Z,10.11
2024-05-09T01:33:12.113Z,10.12
2024-05-09T01:35:42.000Z,10.21
2024-05-09T01:38:12.235Z,10.09
2024-05-09T01:40:40.337Z,10.10
2024-05-09T01:43:11.365Z,10.12
2024-05-09T01:45:42.176Z,10.18
2024-05-09T01:48:10.765Z,10.18
2024-05-09T01:50:41.576Z,10.11
2024-05-09T01:53:11.226Z,10.00
2024-05-09T01:55:38.552Z,9.67
2024-05-09T01:58:05.760Z,9.77
2024-05-09T02:00:39.285Z,9.76
2024-05-09T02:03:11.768Z,9.93
2024-05-09T02:05:41.768Z,9.78
2024-05-09T02:08:14.845Z,10.01
2024-05-09T02:10:51.830Z,9.97
2024-05-09T02:13:18.820Z,10.06
2024-05-09T02:15:45.917Z,9.80
2024-05-09T02:18:13.287Z,9.74
2024-05-09T02:20:42.194Z,9.80
2024-05-09T02:23:10.282Z,9.65
2024-05-09T02:25:37.324Z,9.85
2024-05-09T02:28:04.367Z,9.79
2024-05-09T02:30:39.368Z,9.92
2024-05-09T02:33:13.549Z,9.92
2024-05-09T02:35:41.933Z,10.02
2024-05-09T02:38:09.553Z,10.18
2024-05-09T02:40:38.772Z,10.12
2024-05-09T02:43:08.534Z,10.20
2024-05-09T02:45:36.632Z,10.21
2024-05-09T02:48:03.905Z,10.19
2024-05-09T02:50:37.795Z,9.92
2024-05-09T02:53:14.020Z,10.08
2024-05-09T02:55:42.441Z,10.03
2024-05-09T02:58:10.479Z,9.74
2024-05-09T03:00:40.778Z,9.90
2024-05-09T03:03:12.202Z,10.07
2024-05-09T03:05:41.488Z,10.12
2024-05-09T03:08:08.685Z,10.22
2024-05-09T03:10:37.988Z,10.26
2024-05-09T03:13:11.727Z,10.27
2024-05-09T03:15:38.919Z,10.25
2024-05-09T03:18:06.739Z,10.27
2024-05-09T03:20:35.842Z,10.30
2024-05-09T03:23:05.356Z,10.39
2024-05-09T03:25:32.687Z,10.36
2024-05-09T03:27:59.780Z,10.12
2024-05-09T03:30:38.722Z,9.98
2024-05-09T03:33:13.878Z,9.77
2024-05-09T03:35:41.972Z,9.85
2024-05-09T03:38:09.294Z,9.74
2024-05-09T03:40:36.323Z,9.62
2024-05-09T03:43:03.659Z,9.81
2024-05-09T03:45:30.493Z,9.83
2024-05-09T03:47:57.604Z,9.85
2024-05-09T03:50:30.208Z,9.90
2024-05-09T03:53:02.078Z,9.92
2024-05-09T03:55:29.966Z,10.03
2024-05-09T03:57:57.215Z,10.00
2024-05-09T04:00:31.316Z,10.15
2024-05-09T04:03:06.389Z,10.28
2024-05-09T04:05:35.228Z,10.40
2024-05-09T04:08:02.409Z,10.32
2024-05-09T04:10:33.593Z,10.54
2024-05-09T04:13:02.303Z,10.53
2024-05-09T04:15:29.345Z,10.32
2024-05-09T04:17:56.485Z,10.53
2024-05-09T04:20:35.564Z,10.74
2024-05-09T04:23:14.564Z,10.59
2024-05-09T04:25:44.068Z,10.76
2024-05-09T04:28:11.304Z,10.84
2024-05-09T04:30:40.793Z,11.02
2024-05-09T04:33:12.166Z,11.25
2024-05-09T04:35:44.364Z,11.46
2024-05-09T04:38:15.606Z,11.67
2024-05-09T04:40:43.024Z,11.65
2024-05-09T04:43:19.103Z,11.88
2024-05-09T04:45:46.253Z,11.93
2024-05-09T04:48:13.581Z,11.85
2024-05-09T04:50:40.598Z,12.02
2024-05-09T04:53:10.107Z,12.20
2024-05-09T04:55:38.343Z,11.99
2024-05-09T04:58:08.638Z,11.84
2024-05-09T05:00:37.907Z,11.76
2024-05-09T05:03:12.908Z,12.00
2024-05-09T05:05:42.296Z,12.21
2024-05-09T05:08:17.423Z,12.10
2024-05-09T05:10:46.578Z,12.13
2024-05-09T05:13:22.372Z,12.08
2024-05-09T05:15:52.162Z,12.31
2024-05-09T05:18:19.552Z,12.29
2024-05-09T05:20:46.978Z,12.30
2024-05-09T05:23:16.440Z,12.18
2024-05-09T05:25:44.009Z,12.74
2024-05-09T05:28:11.402Z,12.98
2024-05-09T05:30:38.969Z,13.15
2024-05-09T05:33:07.014Z,13.29
2024-05-09T05:35:34.848Z,13.46
2024-05-09T05:38:02.869Z,13.98
2024-05-09T05:40:36.431Z,14.42
2024-05-09T05:43:05.943Z,14.81
2024-05-09T05:45:32.752Z,15.14
2024-05-09T05:48:00.281Z,15.02
2024-05-09T05:50:34.078Z,14.84
2024-05-09T05:53:03.753Z,15.07
2024-05-09T05:55:30.585Z,15.22
2024-05-09T05:57:57.432Z,15.09
2024-05-09T06:02:54.065Z,14.37
2024-05-09T06:05:21.131Z,14.21
2024-05-09T06:07:48.072Z,13.83
2024-05-09T06:10:21.314Z,14.46
2024-05-09T06:12:52.482Z,14.93
2024-05-09T06:15:19.268Z,15.61
2024-05-09T06:17:46.738Z,16.46
2024-05-09T06:20:20.536Z,17.96
2024-05-09T06:22:54.525Z,20.41
2024-05-09T06:25:21.332Z,21.93
2024-05-09T06:27:48.168Z,22.93
2024-05-09T06:30:25.617Z,24.45
2024-05-09T06:32:57.739Z,24.39
2024-05-09T06:35:25.105Z,24.81
2024-05-09T06:37:51.994Z,23.51
2024-05-09T06:40:25.469Z,24.32
2024-05-09T06:42:57.762Z,24.07
2024-05-09T06:45:24.571Z,25.06
2024-05-09T06:47:51.534Z,25.39
2024-05-09T06:50:23.909Z,23.49
2024-05-09T06:52:55.054Z,24.09
2024-05-09T06:55:22.350Z,24.30
2024-05-09T06:57:49.346Z,22.43
2024-05-09T07:00:23.037Z,23.19
2024-05-09T07:02:59.065Z,22.66
2024-05-09T07:05:27.100Z,24.19
2024-05-09T07:07:53.971Z,24.89
2024-05-09T07:10:28.648Z,25.90
2024-05-09T07:12:59.973Z,25.31
2024-05-09T07:15:26.845Z,24.76
2024-05-09T07:17:53.879Z,25.11
2024-05-09T07:20:31.692Z,26.30
2024-05-09T07:23:03.052Z,26.27
2024-05-09T07:25:30.319Z,23.46
2024-05-09T07:27:57.316Z,22.18
2024-05-09T07:30:32.602Z,23.42
2024-05-09T07:33:02.318Z,23.51
2024-05-09T07:35:30.012Z,24.15
2024-05-09T07:37:57.249Z,24.01
2024-05-09T07:40:36.123Z,22.58
2024-05-09T07:43:05.051Z,23.21
2024-05-09T07:45:48.214Z,23.72
2024-05-09T07:52:38.322Z,22.67
2024-05-09T07:53:48.362Z,21.98
2024-05-09T07:56:20.370Z,20.54
2024-05-09T07:58:51.019Z,20.93
2024-05-09T08:01:18.234Z,21.69
2024-05-09T08:03:45.429Z,20.54
2024-05-09T08:06:12.396Z,19.96
2024-05-09T08:08:39.292Z,19.62
2024-05-09T08:11:06.768Z,19.45
2024-05-09T08:13:33.687Z,20.68
2024-05-09T08:16:00.751Z,20.08
2024-05-09T08:18:28.999Z,19.91
2024-05-09T08:20:56.080Z,20.26
2024-05-09T08:23:24.497Z,20.14
2024-05-09T08:25:55.420Z,20.82
2024-05-09T08:28:22.320Z,21.28
2024-05-09T08:30:49.916Z,21.60
2024-05-09T08:33:16.977Z,22.22
2024-05-09T08:35:43.916Z,21.56
2024-05-09T08:38:10.893Z,21.08
2024-05-09T08:40:38.417Z,21.62
2024-05-09T08:43:11.398Z,22.44
2024-05-09T08:45:43.891Z,21.77
2024-05-09T08:48:15.210Z,21.26
2024-05-09T08:50:44.918Z,20.88
2024-05-09T08:53:13.084Z,21.29
2024-05-09T08:55:43.236Z,20.96
2024-05-09T08:58:16.189Z,20.51
2024-05-09T09:00:45.644Z,19.60
2024-05-09T09:03:16.109Z,19.82
2024-05-09T09:05:56.352Z,20.28
2024-05-09T09:08:23.357Z,20.11
2024-05-09T09:10:54.202Z,19.88
2024-05-09T09:13:21.163Z,19.70
2024-05-09T09:15:49.135Z,19.49
2024-05-09T09:18:17.472Z,19.66
2024-05-09T09:20:44.798Z,19.73
2024-05-09T09:23:11.757Z,20.17
2024-05-09T09:25:42.264Z,20.51
2024-05-09T09:28:09.747Z,19.87
2024-05-09T09:30:40.940Z,20.19
2024-05-09T09:33:10.151Z,20.63
2024-05-09T09:35:40.114Z,20.67
2024-05-09T09:38:08.002Z,20.04
2024-05-09T09:40:40.737Z,20.32
2024-05-09T09:43:15.477Z,20.94
2024-05-09T09:45:44.316Z,21.17
2024-05-09T09:48:14.712Z,21.00
2024-05-09T09:50:42.382Z,21.03
2024-05-09T09:53:10.480Z,20.78
2024-05-09T09:55:39.829Z,21.01
2024-05-09T09:58:09.676Z,20.53
2024-05-09T10:00:39.144Z,20.01
2024-05-09T10:03:06.925Z,19.25
2024-05-09T10:05:34.530Z,18.66
2024-05-09T10:08:10.656Z,18.87
2024-05-09T10:10:47.141Z,18.94
2024-05-09T10:13:14.455Z,18.74
2024-05-09T10:15:51.975Z,18.37
2024-05-09T10:18:27.109Z,18.35
2024-05-09T10:20:56.333Z,18.60
2024-05-09T10:23:27.022Z,18.18
2024-05-09T10:26:03.811Z,18.15
2024-05-09T10:28:32.602Z,17.89
2024-05-09T10:31:13.387Z,17.53
2024-05-09T10:33:46.936Z,17.12
2024-05-09T10:36:22.158Z,16.79
2024-05-09T10:38:50.069Z,16.49
2024-05-09T10:41:17.716Z,16.48
2024-05-09T10:43:44.804Z,16.45
2024-05-09T10:46:12.381Z,16.26
2024-05-09T10:48:41.708Z,16.45
2024-05-09T10:51:09.211Z,16.34
2024-05-09T10:53:46.074Z,16.19
2024-05-09T10:56:17.142Z,16.02
2024-05-09T10:58:44.608Z,16.30
2024-05-09T11:01:13.460Z,16.37
2024-05-09T11:03:41.000Z,16.31
2024-05-09T11:06:09.929Z,16.22
2024-05-09T11:08:37.905Z,16.25
2024-05-09T11:11:08.097Z,16.31
2024-05-09T11:13:39.738Z,16.15
2024-05-09T11:16:19.394Z,15.67
2024-05-09T11:18:57.302Z,15.50
2024-05-09T11:21:25.268Z,15.27
2024-05-09T11:23:52.403Z,14.96
2024-05-09T11:26:21.699Z,15.15
2024-05-09T11:28:50.558Z,15.11
2024-05-09T11:31:18.035Z,15.03
2024-05-09T11:33:47.031Z,14.75
2024-05-09T11:36:14.594Z,14.59
2024-05-09T11:38:41.622Z,14.27
2024-05-09T11:41:08.716Z,13.96
2024-05-09T11:43:35.631Z,13.92
2024-05-09T11:46:03.846Z,13.96
2024-05-09T11:48:31.709Z,13.82
2024-05-09T11:50:58.909Z,13.51
2024-05-09T11:53:25.732Z,13.27
2024-05-09T11:55:52.684Z,13.08
2024-05-09T11:58:21.603Z,12.98
2024-05-09T12:00:48.606Z,12.89
2024-05-09T12:03:15.558Z,13.00
2024-05-09T12:05:42.676Z,13.01
2024-05-09T12:08:09.792Z,12.83
2024-05-09T12:10:37.190Z,12.71
2024-05-09T12:13:06.544Z,12.12
2024-05-09T12:15:37.563Z,11.85
2024-05-09T12:18:06.175Z,11.79
2024-05-09T12:20:37.635Z,11.95
2024-05-09T12:23:07.392Z,11.80
2024-05-09T12:25:34.973Z,11.67
2024-05-09T12:28:02.003Z,11.84
2024-05-09T12:30:36.325Z,11.93
2024-05-09T12:33:08.303Z,12.18
2024-05-09T12:35:35.498Z,12.01
2024-05-09T12:38:02.713Z,11.81
2024-05-09T12:40:36.396Z,11.80
2024-05-09T12:43:06.991Z,11.92
2024-05-09T12:45:34.309Z,11.69
2024-05-09T12:48:01.377Z,11.75
2024-05-09T12:50:32.727Z,11.55
2024-05-09T12:53:02.182Z,11.66
2024-05-09T12:55:33.976Z,11.79
2024-05-09T12:58:07.963Z,12.13
2024-05-09T13:00:35.108Z,12.47
2024-05-09T13:03:02.217Z,12.76
2024-05-09T13:05:29.699Z,13.01
2024-05-09T13:07:57.282Z,13.10
2024-05-09T13:10:31.262Z,12.92
2024-05-09T13:13:00.921Z,13.15
2024-05-09T13:15:28.640Z,13.59
2024-05-09T13:17:58.439Z,13.66
2024-05-09T13:20:32.801Z,13.63
2024-05-09T13:23:03.068Z,14.04
2024-05-09T13:25:30.004Z,14.04
2024-05-09T13:27:57.392Z,13.91
2024-05-09T13:32:54.839Z,13.43
2024-05-09T13:35:21.811Z,13.49
2024-05-09T13:37:48.653Z,13.56
2024-05-09T13:40:23.226Z,13.76
2024-05-09T13:42:54.180Z,13.96
2024-05-09T13:45:21.004Z,14.07
2024-05-09T13:47:48.047Z,14.13
2024-05-09T13:50:27.548Z,14.17
2024-05-09T13:53:00.128Z,14.19
2024-05-09T13:55:26.936Z,14.19
2024-05-09T13:57:54.075Z,14.35
2024-05-09T14:02:50.650Z,14.39
2024-05-09T14:05:17.666Z,14.41
2024-05-09T14:07:44.639Z,14.63
2024-05-09T14:10:16.065Z,14.70
2024-05-09T14:12:49.829Z,14.54
2024-05-09T14:15:16.638Z,14.47
2024-05-09T14:17:43.559Z,14.65
2024-05-09T14:20:14.085Z,14.69
2024-05-09T14:22:47.179Z,14.99
2024-05-09T14:25:14.635Z,15.19
2024-05-09T14:27:41.476Z,15.14
2024-05-09T14:30:18.075Z,15.05
2024-05-09T14:32:52.520Z,15.27
2024-05-09T14:35:19.417Z,15.20
2024-05-09T14:37:46.305Z,15.11
2024-05-09T14:40:30.404Z,15.04
2024-05-09T14:43:03.248Z,14.96
2024-05-09T14:45:30.352Z,15.06
2024-05-09T14:47:57.524Z,14.83
2024-05-09T14:50:34.429Z,14.94
2024-05-09T14:53:04.545Z,14.99
2024-05-09T14:55:31.425Z,14.79
2024-05-09T14:57:58.344Z,14.72
2024-05-09T15:00:29.183Z,14.59
2024-05-09T15:03:00.721Z,14.65
2024-05-09T15:05:27.736Z,14.79
2024-05-09T15:07:57.619Z,14.65
2024-05-09T15:10:33.388Z,14.65
2024-05-09T15:13:02.742Z,14.58
2024-05-09T15:15:29.786Z,14.46
2024-05-09T15:17:56.991Z,14.39
2024-05-09T15:20:32.951Z,14.33
2024-05-09T15:23:02.911Z,14.36
2024-05-09T15:25:29.933Z,14.34
2024-05-09T15:27:57.223Z,14.34
2024-05-09T15:30:30.323Z,14.20
2024-05-09T15:33:00.688Z,14.23
2024-05-09T15:35:27.890Z,14.08
2024-05-09T15:37:55.142Z,13.81
2024-05-09T15:40:31.174Z,13.66
2024-05-09T15:43:05.823Z,13.34
2024-05-09T15:45:33.182Z,13.30
2024-05-09T15:48:00.792Z,13.22
2024-05-09T15:50:36.512Z,13.00
2024-05-09T15:53:08.002Z,12.93
2024-05-09T15:55:35.863Z,12.84
2024-05-09T15:58:04.333Z,12.76
2024-05-09T16:03:01.622Z,12.53
2024-05-09T16:05:28.644Z,12.55
2024-05-09T16:07:55.588Z,12.58
2024-05-09T16:10:26.055Z,12.46
2024-05-09T16:12:59.202Z,12.34
2024-05-09T16:15:26.162Z,12.36
2024-05-09T16:17:53.215Z,12.28
2024-05-09T16:20:33.215Z,12.22
2024-05-09T16:23:05.399Z,12.12
2024-05-09T16:25:32.276Z,12.17
2024-05-09T16:27:59.191Z,12.13
2024-05-09T16:30:32.167Z,12.15
2024-05-09T16:33:02.924Z,12.02
2024-05-09T16:35:30.190Z,11.98
2024-05-09T16:37:57.385Z,12.04
2024-05-09T16:40:34.291Z,11.93
2024-05-09T16:43:06.353Z,11.97
2024-05-09T16:45:33.630Z,11.91
2024-05-09T16:48:01.975Z,11.89
2024-05-09T16:50:33.731Z,11.92
2024-05-09T16:53:03.249Z,11.84
2024-05-09T16:55:30.407Z,11.68
2024-05-09T16:57:58.126Z,11.69
2024-05-09T17:00:36.063Z,11.71
2024-05-09T17:03:15.729Z,11.71
2024-05-09T17:05:46.441Z,11.56
2024-05-09T17:08:15.626Z,11.62
2024-05-09T17:10:42.747Z,11.76
2024-05-09T17:13:10.211Z,11.82
2024-05-09T17:15:37.720Z,11.68
2024-05-09T17:18:06.590Z,11.71
2024-05-09T17:20:36.360Z,11.65
2024-05-09T17:23:05.947Z,11.74
2024-05-09T17:25:33.743Z,11.67
2024-05-09T17:28:06.912Z,11.65
2024-05-09T17:30:37.354Z,11.66
2024-05-09T17:33:07.468Z,11.71
2024-05-09T17:35:36.099Z,11.58
2024-05-09T17:38:03.320Z,11.59
2024-05-09T17:40:33.930Z,11.44
2024-05-09T17:43:04.429Z,11.56
2024-05-09T17:45:32.313Z,11.46
2024-05-09T17:47:59.840Z,11.49
2024-05-09T17:50:34.941Z,11.50
2024-05-09T17:53:04.357Z,11.57
2024-05-09T17:55:31.343Z,11.52
2024-05-09T17:57:58.401Z,11.40
2024-05-09T18:00:36.395Z,11.49
2024-05-09T18:03:07.274Z,11.58
2024-05-09T18:05:36.713Z,11.38
2024-05-09T18:08:04.547Z,11.35
2024-05-09T18:10:36.704Z,11.46
2024-05-09T18:13:07.007Z,11.54
2024-05-09T18:15:34.524Z,11.59
2024-05-09T18:18:02.478Z,11.48
2024-05-09T18:20:38.135Z,11.32
2024-05-09T18:23:11.044Z,11.35
2024-05-09T18:25:37.959Z,11.35
2024-05-09T18:28:05.835Z,11.25
2024-05-09T18:30:37.435Z,11.29
2024-05-09T18:33:09.908Z,11.26
2024-05-09T18:35:37.150Z,11.32
2024-05-09T18:38:05.186Z,11.42
2024-05-09T18:40:35.903Z,11.38
2024-05-09T18:43:06.873Z,11.29
2024-05-09T18:45:36.099Z,11.17
2024-05-09T18:48:05.059Z,11.33
2024-05-09T18:50:37.081Z,11.39
2024-05-09T18:53:06.677Z,11.35
2024-05-09T18:55:33.716Z,11.28
2024-05-09T18:58:00.993Z,11.31
2024-05-09T19:00:34.524Z,11.36
2024-05-09T19:03:09.351Z,11.21
2024-05-09T19:05:39.046Z,11.11
2024-05-09T19:08:07.454Z,11.18
2024-05-09T19:10:35.785Z,11.23
2024-05-09T19:13:08.274Z,11.08
2024-05-09T19:15:39.329Z,11.19
2024-05-09T19:18:07.335Z,11.10
2024-05-09T19:20:36.145Z,11.18
2024-05-09T19:23:04.914Z,11.11
2024-05-09T19:25:33.198Z,11.27
2024-05-09T19:28:00.767Z,11.21
2024-05-09T19:30:36.769Z,11.14
2024-05-09T19:33:08.217Z,11.11
2024-05-09T19:35:35.288Z,11.10
2024-05-09T19:38:02.506Z,11.18
2024-05-09T19:40:32.328Z,11.18
2024-05-09T19:43:02.584Z,11.01
2024-05-09T19:45:33.676Z,10.93
2024-05-09T19:48:01.690Z,10.90
2024-05-09T19:50:37.211Z,10.95
2024-05-09T19:53:10.384Z,11.09
2024-05-09T19:55:37.693Z,10.99
2024-05-09T19:58:07.170Z,10.98
2024-05-09T20:00:37.143Z,10.98
2024-05-09T20:03:06.388Z,10.99
2024-05-09T20:05:34.105Z,10.75
2024-05-09T20:08:01.131Z,10.98
2024-05-09T20:10:32.478Z,10.95
2024-05-09T20:13:01.702Z,10.93
2024-05-09T20:15:28.666Z,10.93
2024-05-09T20:17:57.952Z,10.95
2024-05-09T20:20:33.627Z,10.93
2024-05-09T20:23:08.839Z,10.86
2024-05-09T20:25:38.704Z,10.90
2024-05-09T20:28:09.047Z,10.85
2024-05-09T20:30:36.405Z,10.84
2024-05-09T20:33:05.458Z,10.83
2024-05-09T20:35:33.936Z,10.70
2024-05-09T20:38:01.782Z,10.77
2024-05-09T20:40:33.988Z,10.78
2024-05-09T20:43:04.789Z,10.76
2024-05-09T20:45:31.931Z,10.83
2024-05-09T20:47:58.916Z,10.69
2024-05-09T20:50:35.953Z,10.73
2024-05-09T20:53:09.298Z,10.83
2024-05-09T20:55:36.823Z,10.72
2024-05-09T20:58:03.825Z,10.73
2024-05-09T21:00:39.269Z,10.71
2024-05-09T21:03:09.853Z,10.77
2024-05-09T21:05:37.075Z,10.71
2024-05-09T21:08:04.331Z,10.75
2024-05-09T21:10:40.392Z,10.65
2024-05-09T21:13:08.010Z,10.77
2024-05-09T21:15:35.733Z,10.67
2024-05-09T21:18:03.308Z,10.53
2024-05-09T21:20:32.958Z,10.62
2024-05-09T21:23:01.578Z,10.52
2024-05-09T21:25:29.081Z,10.62
2024-05-09T21:27:56.777Z,10.57
2024-05-09T21:30:32.605Z,10.55
2024-05-09T21:33:12.449Z,10.62
2024-05-09T21:35:41.694Z,10.54
2024-05-09T21:38:08.684Z,10.36
2024-05-09T21:40:36.837Z,10.38
2024-05-09T21:43:07.720Z,10.31
2024-05-09T21:45:35.231Z,10.30
2024-05-09T21:48:06.669Z,10.15
2024-05-09T21:50:39.799Z,10.26
2024-05-09T21:53:08.621Z,10.18
2024-05-09T21:55:35.654Z,10.21
2024-05-09T21:58:03.325Z,10.26
2024-05-09T22:00:36.359Z,10.23
2024-05-09T22:03:10.684Z,10.15
2024-05-09T22:05:42.069Z,10.03
2024-05-09T22:08:09.965Z,10.15
2024-05-09T22:10:37.331Z,9.98
2024-05-09T22:13:05.804Z,9.92
2024-05-09T22:15:38.090Z,9.98
2024-05-09T22:18:08.056Z,10.09
2024-05-09T22:20:38.479Z,10.09
2024-05-09T22:23:08.211Z,9.99
2024-05-09T22:25:36.206Z,9.96
2024-05-09T22:28:03.626Z,10.04
2024-05-09T22:30:36.479Z,9.94
2024-05-09T22:33:11.189Z,10.03
2024-05-09T22:35:40.063Z,10.01
2024-05-09T22:38:07.110Z,10.02
2024-05-09T22:40:43.372Z,9.82
2024-05-09T22:43:23.449Z,9.88
2024-05-09T22:45:52.962Z,9.91
2024-05-09T22:48:20.597Z,9.92
2024-05-09T22:50:50.262Z,9.85
2024-05-09T22:53:17.165Z,10.05
2024-05-09T22:55:44.066Z,10.10
2024-05-09T22:58:11.125Z,10.12
2024-05-09T23:00:38.348Z,9.98
2024-05-09T23:03:05.626Z,10.12
2024-05-09T23:05:32.996Z,9.92
2024-05-09T23:08:01.721Z,9.82
2024-05-09T23:10:35.472Z,9.77
2024-05-09T23:13:07.703Z,9.87
2024-05-09T23:15:37.252Z,9.84
2024-05-09T23:18:04.936Z,9.84
2024-05-09T23:20:37.520Z,9.77
2024-05-09T23:23:10.954Z,9.81
2024-05-09T23:25:39.067Z,9.65
2024-05-09T23:28:06.335Z,9.59
2024-05-09T23:30:38.098Z,9.70
2024-05-09T23:33:11.920Z,9.62
2024-05-09T23:35:40.852Z,9.67
2024-05-09T23:38:07.823Z,9.64
2024-05-09T23:40:39.053Z,9.65
2024-05-09T23:43:11.966Z,9.53
2024-05-09T23:45:39.475Z,9.56
2024-05-09T23:48:07.155Z,9.57
2024-05-09T23:50:37.562Z,9.49
2024-05-09T23:53:08.010Z,9.60
2024-05-09T23:55:38.222Z,9.50
2024-05-09T23:58:05.803Z,9.51
